sensor_id;sensor_type;location;lat;lon;timestamp;pressure;altitude;pressure_sealevel;temperature;humidity
56713;BME280;42589;45.536;9.032;2023-02-03T00:02:30;100484.16;;;14.51;35.16
56713;BME280;42589;45.536;9.032;2023-02-03T00:05:30;100457.88;;;14.47;34.51
56713;BME280;42589;45.536;9.032;2023-02-03T00:08:34;100467.38;;;14.49;34.68
56713;BME280;42589;45.536;9.032;2023-02-03T00:11:35;100490.22;;;14.61;34.51
56713;BME280;42589;45.536;9.032;2023-02-03T00:14:36;100476.28;;;14.50;34.85
56713;BME280;42589;45.536;9.032;2023-02-03T00:17:37;100480.88;;;14.39;34.89
56713;BME280;42589;45.536;9.032;2023-02-03T00:20:38;100484.88;;;14.27;35.25
56713;BME280;42589;45.536;9.032;2023-02-03T00:23:38;100470.25;;;13.87;35.44
56713;BME280;42589;45.536;9.032;2023-02-03T00:26:42;100479.72;;;14.08;35.38
56713;BME280;42589;45.536;9.032;2023-02-03T00:29:43;100478.66;;;13.92;35.66
56713;BME280;42589;45.536;9.032;2023-02-03T00:32:43;100456.91;;;13.87;35.57
56713;BME280;42589;45.536;9.032;2023-02-03T00:35:44;100490.53;;;13.98;35.68
56713;BME280;42589;45.536;9.032;2023-02-03T00:38:45;100482.91;;;13.59;36.39
56713;BME280;42589;45.536;9.032;2023-02-03T00:41:49;100460.00;;;13.75;35.96
56713;BME280;42589;45.536;9.032;2023-02-03T00:44:50;100473.88;;;13.78;35.87
56713;BME280;42589;45.536;9.032;2023-02-03T00:47:51;100446.75;;;13.47;35.79
56713;BME280;42589;45.536;9.032;2023-02-03T00:50:52;100444.06;;;13.39;35.85
56713;BME280;42589;45.536;9.032;2023-02-03T00:53:53;100482.09;;;13.59;35.57
56713;BME280;42589;45.536;9.032;2023-02-03T00:56:54;100470.31;;;13.69;35.66
56713;BME280;42589;45.536;9.032;2023-02-03T00:59:56;100485.59;;;13.59;36.42
56713;BME280;42589;45.536;9.032;2023-02-03T01:02:57;100453.66;;;13.14;36.17
56713;BME280;42589;45.536;9.032;2023-02-03T01:09:09;100494.69;;;13.49;36.07
56713;BME280;42589;45.536;9.032;2023-02-03T01:12:10;100468.31;;;13.28;36.44
56713;BME280;42589;45.536;9.032;2023-02-03T01:15:11;100489.31;;;13.13;36.11
56713;BME280;42589;45.536;9.032;2023-02-03T01:18:12;100488.13;;;13.43;35.22
56713;BME280;42589;45.536;9.032;2023-02-03T01:21:17;100481.03;;;13.34;35.74
56713;BME280;42589;45.536;9.032;2023-02-03T01:24:18;100482.63;;;13.62;34.95
56713;BME280;42589;45.536;9.032;2023-02-03T01:27:19;100487.94;;;13.62;34.81
56713;BME280;42589;45.536;9.032;2023-02-03T01:30:20;100484.06;;;13.21;35.76
56713;BME280;42589;45.536;9.032;2023-02-03T01:33:24;100471.84;;;13.18;35.60
56713;BME280;42589;45.536;9.032;2023-02-03T01:36:27;100498.81;;;13.43;35.21
56713;BME280;42589;45.536;9.032;2023-02-03T01:39:29;100478.25;;;13.35;34.58
56713;BME280;42589;45.536;9.032;2023-02-03T01:42:32;100497.59;;;13.37;34.95
56713;BME280;42589;45.536;9.032;2023-02-03T01:45:33;100491.69;;;13.16;35.60
56713;BME280;42589;45.536;9.032;2023-02-03T01:48:35;100478.06;;;13.37;35.32
56713;BME280;42589;45.536;9.032;2023-02-03T01:51:37;100489.22;;;13.32;35.26
56713;BME280;42589;45.536;9.032;2023-02-03T01:54:43;100488.88;;;13.53;34.72
56713;BME280;42589;45.536;9.032;2023-02-03T01:57:50;100483.97;;;13.13;35.58
56713;BME280;42589;45.536;9.032;2023-02-03T02:00:52;100485.16;;;13.46;35.34
56713;BME280;42589;45.536;9.032;2023-02-03T02:03:55;100488.34;;;13.14;35.71
56713;BME280;42589;45.536;9.032;2023-02-03T02:06:58;100477.16;;;13.28;35.19
56713;BME280;42589;45.536;9.032;2023-02-03T02:10:00;100436.25;;;13.10;35.42
56713;BME280;42589;45.536;9.032;2023-02-03T02:13:02;100452.56;;;12.89;36.14
56713;BME280;42589;45.536;9.032;2023-02-03T02:36:32;100483.28;;;12.75;36.60
56713;BME280;42589;45.536;9.032;2023-02-03T02:45:59;100475.47;;;12.64;37.13
56713;BME280;42589;45.536;9.032;2023-02-03T02:49:30;100478.34;;;12.25;37.68
56713;BME280;42589;45.536;9.032;2023-02-03T02:52:36;100465.75;;;12.45;36.82
56713;BME280;42589;45.536;9.032;2023-02-03T02:55:39;100461.22;;;12.27;36.70
56713;BME280;42589;45.536;9.032;2023-02-03T02:58:43;100453.16;;;12.37;36.72
56713;BME280;42589;45.536;9.032;2023-02-03T03:01:46;100459.00;;;12.50;36.18
56713;BME280;42589;45.536;9.032;2023-02-03T03:04:48;100470.59;;;12.59;36.08
56713;BME280;42589;45.536;9.032;2023-02-03T03:07:57;100462.44;;;12.61;36.02
56713;BME280;42589;45.536;9.032;2023-02-03T03:11:02;100446.44;;;12.61;35.31
56713;BME280;42589;45.536;9.032;2023-02-03T03:14:04;100469.19;;;12.55;35.71
56713;BME280;42589;45.536;9.032;2023-02-03T03:17:08;100485.72;;;12.59;36.23
56713;BME280;42589;45.536;9.032;2023-02-03T03:20:23;100482.41;;;12.57;35.88
56713;BME280;42589;45.536;9.032;2023-02-03T03:23:29;100453.72;;;12.41;35.64
56713;BME280;42589;45.536;9.032;2023-02-03T03:26:35;100465.72;;;12.17;36.78
56713;BME280;42589;45.536;9.032;2023-02-03T03:29:50;100463.22;;;12.16;36.70
56713;BME280;42589;45.536;9.032;2023-02-03T03:32:52;100485.63;;;12.23;36.54
56713;BME280;42589;45.536;9.032;2023-02-03T03:36:21;100491.47;;;12.36;36.73
56713;BME280;42589;45.536;9.032;2023-02-03T03:39:36;100495.41;;;12.32;36.25
56713;BME280;42589;45.536;9.032;2023-02-03T03:42:40;100487.88;;;12.27;36.04
56713;BME280;42589;45.536;9.032;2023-02-03T03:46:07;100497.84;;;12.53;36.04
56713;BME280;42589;45.536;9.032;2023-02-03T03:49:12;100498.22;;;12.58;35.47
56713;BME280;42589;45.536;9.032;2023-02-03T03:52:17;100482.41;;;12.19;36.35
56713;BME280;42589;45.536;9.032;2023-02-03T03:55:19;100478.09;;;12.18;36.28
56713;BME280;42589;45.536;9.032;2023-02-03T03:58:30;100495.41;;;12.32;36.68
56713;BME280;42589;45.536;9.032;2023-02-03T04:01:32;100485.72;;;11.94;36.43
56713;BME280;42589;45.536;9.032;2023-02-03T04:04:35;100501.13;;;12.00;36.86
56713;BME280;42589;45.536;9.032;2023-02-03T04:07:41;100521.28;;;12.22;36.57
56713;BME280;42589;45.536;9.032;2023-02-03T04:10:43;100498.56;;;12.08;36.85
56713;BME280;42589;45.536;9.032;2023-02-03T04:13:44;100513.38;;;11.44;37.80
56713;BME280;42589;45.536;9.032;2023-02-03T04:16:45;100518.66;;;12.02;36.99
56713;BME280;42589;45.536;9.032;2023-02-03T04:19:47;100514.84;;;12.05;36.81
56713;BME280;42589;45.536;9.032;2023-02-03T04:22:47;100511.25;;;11.96;36.58
56713;BME280;42589;45.536;9.032;2023-02-03T04:25:48;100502.72;;;11.93;37.85
56713;BME280;42589;45.536;9.032;2023-02-03T04:28:49;100481.41;;;11.54;37.60
56713;BME280;42589;45.536;9.032;2023-02-03T04:31:50;100513.81;;;11.39;38.17
56713;BME280;42589;45.536;9.032;2023-02-03T04:34:51;100512.53;;;11.44;38.15
56713;BME280;42589;45.536;9.032;2023-02-03T04:37:52;100512.41;;;11.45;37.86
56713;BME280;42589;45.536;9.032;2023-02-03T04:40:53;100511.97;;;11.59;37.82
56713;BME280;42589;45.536;9.032;2023-02-03T04:43:53;100500.06;;;11.44;38.13
56713;BME280;42589;45.536;9.032;2023-02-03T04:46:55;100515.75;;;11.57;37.87
56713;BME280;42589;45.536;9.032;2023-02-03T04:50:00;100514.63;;;11.50;37.95
56713;BME280;42589;45.536;9.032;2023-02-03T04:53:01;100470.63;;;10.97;38.06
56713;BME280;42589;45.536;9.032;2023-02-03T04:56:02;100506.09;;;11.36;38.10
56713;BME280;42589;45.536;9.032;2023-02-03T04:59:03;100471.91;;;11.32;38.25
56713;BME280;42589;45.536;9.032;2023-02-03T05:02:04;100491.41;;;11.23;38.69
56713;BME280;42589;45.536;9.032;2023-02-03T05:05:06;100513.66;;;11.22;38.72
56713;BME280;42589;45.536;9.032;2023-02-03T05:08:07;100511.53;;;11.45;38.38
56713;BME280;42589;45.536;9.032;2023-02-03T05:11:08;100515.75;;;11.37;38.47
56713;BME280;42589;45.536;9.032;2023-02-03T05:14:08;100506.66;;;11.11;38.63
56713;BME280;42589;45.536;9.032;2023-02-03T05:17:10;100500.63;;;11.38;38.02
56713;BME280;42589;45.536;9.032;2023-02-03T05:20:11;100512.41;;;11.45;38.19
56713;BME280;42589;45.536;9.032;2023-02-03T05:23:12;100503.16;;;11.10;39.05
56713;BME280;42589;45.536;9.032;2023-02-03T05:26:12;100499.06;;;11.26;38.61
56713;BME280;42589;45.536;9.032;2023-02-03T05:29:13;100476.19;;;10.75;39.86
56713;BME280;42589;45.536;9.032;2023-02-03T05:32:15;100482.16;;;11.17;38.66
56713;BME280;42589;45.536;9.032;2023-02-03T05:35:16;100500.75;;;11.07;38.78
56713;BME280;42589;45.536;9.032;2023-02-03T05:38:17;100489.97;;;10.99;38.94
56713;BME280;42589;45.536;9.032;2023-02-03T05:41:18;100518.84;;;11.23;38.53
56713;BME280;42589;45.536;9.032;2023-02-03T05:44:38;100510.69;;;11.15;38.24
56713;BME280;42589;45.536;9.032;2023-02-03T05:47:39;100514.97;;;10.77;39.25
56713;BME280;42589;45.536;9.032;2023-02-03T05:50:40;100536.16;;;10.48;39.54
56713;BME280;42589;45.536;9.032;2023-02-03T05:53:43;100540.16;;;10.73;38.64
56713;BME280;42589;45.536;9.032;2023-02-03T05:56:43;100554.03;;;10.77;39.42
56713;BME280;42589;45.536;9.032;2023-02-03T05:59:44;100568.59;;;10.73;39.20
56713;BME280;42589;45.536;9.032;2023-02-03T06:02:55;100569.78;;;10.99;38.60
56713;BME280;42589;45.536;9.032;2023-02-03T06:05:56;100565.94;;;10.82;39.20
56713;BME280;42589;45.536;9.032;2023-02-03T06:09:03;100538.13;;;10.96;38.63
56713;BME280;42589;45.536;9.032;2023-02-03T06:12:05;100541.66;;;10.56;38.97
56713;BME280;42589;45.536;9.032;2023-02-03T06:15:07;100482.56;;;10.53;38.81
56713;BME280;42589;45.536;9.032;2023-02-03T06:18:09;100544.38;;;10.76;39.06
56713;BME280;42589;45.536;9.032;2023-02-03T06:21:10;100531.56;;;10.50;39.13
56713;BME280;42589;45.536;9.032;2023-02-03T06:24:11;100539.88;;;10.66;39.03
56713;BME280;42589;45.536;9.032;2023-02-03T06:27:13;100485.72;;;10.37;39.05
56713;BME280;42589;45.536;9.032;2023-02-03T06:30:14;100511.44;;;10.27;40.05
56713;BME280;42589;45.536;9.032;2023-02-03T06:33:15;100548.56;;;10.78;39.45
56713;BME280;42589;45.536;9.032;2023-02-03T06:36:16;100529.41;;;10.94;38.70
56713;BME280;42589;45.536;9.032;2023-02-03T06:39:17;100522.72;;;11.00;38.29
56713;BME280;42589;45.536;9.032;2023-02-03T06:42:18;100538.00;;;11.07;38.91
56713;BME280;42589;45.536;9.032;2023-02-03T06:45:18;100542.34;;;10.99;38.52
56713;BME280;42589;45.536;9.032;2023-02-03T06:48:19;100554.53;;;10.61;39.40
56713;BME280;42589;45.536;9.032;2023-02-03T06:51:20;100571.34;;;10.71;39.88
56713;BME280;42589;45.536;9.032;2023-02-03T06:54:20;100558.91;;;10.72;39.36
56713;BME280;42589;45.536;9.032;2023-02-03T06:57:21;100568.25;;;11.06;39.14
56713;BME280;42589;45.536;9.032;2023-02-03T07:00:22;100586.72;;;10.98;39.06
56713;BME280;42589;45.536;9.032;2023-02-03T07:03:24;100589.88;;;11.23;38.93
56713;BME280;42589;45.536;9.032;2023-02-03T07:06:25;100550.00;;;10.52;40.14
56713;BME280;42589;45.536;9.032;2023-02-03T07:09:28;100586.13;;;10.85;39.54
56713;BME280;42589;45.536;9.032;2023-02-03T07:12:30;100605.69;;;11.24;38.83
56713;BME280;42589;45.536;9.032;2023-02-03T07:15:30;100608.16;;;11.16;39.02
56713;BME280;42589;45.536;9.032;2023-02-03T07:18:31;100596.97;;;10.20;40.63
56713;BME280;42589;45.536;9.032;2023-02-03T07:21:32;100591.53;;;10.74;40.21
56713;BME280;42589;45.536;9.032;2023-02-03T07:24:34;100619.88;;;10.94;39.52
56713;BME280;42589;45.536;9.032;2023-02-03T07:27:35;100615.31;;;11.15;39.86
56713;BME280;42589;45.536;9.032;2023-02-03T07:30:36;100627.56;;;11.37;39.74
56713;BME280;42589;45.536;9.032;2023-02-03T07:33:37;100600.66;;;11.41;39.12
56713;BME280;42589;45.536;9.032;2023-02-03T07:36:42;100623.75;;;11.30;38.88
56713;BME280;42589;45.536;9.032;2023-02-03T07:39:43;100632.75;;;11.39;39.18
56713;BME280;42589;45.536;9.032;2023-02-03T07:42:46;100631.75;;;11.40;39.25
56713;BME280;42589;45.536;9.032;2023-02-03T07:45:48;100641.44;;;11.60;39.00
56713;BME280;42589;45.536;9.032;2023-02-03T07:48:51;100636.53;;;11.36;39.85
56713;BME280;42589;45.536;9.032;2023-02-03T07:51:52;100623.94;;;11.38;39.51
56713;BME280;42589;45.536;9.032;2023-02-03T07:54:53;100645.94;;;11.79;38.92
56713;BME280;42589;45.536;9.032;2023-02-03T07:57:55;100636.56;;;11.75;38.42
56713;BME280;42589;45.536;9.032;2023-02-03T08:00:56;100644.31;;;11.88;37.87
56713;BME280;42589;45.536;9.032;2023-02-03T08:03:58;100628.72;;;12.22;37.31
56713;BME280;42589;45.536;9.032;2023-02-03T08:07:01;100629.69;;;12.31;36.56
56713;BME280;42589;45.536;9.032;2023-02-03T08:10:02;100649.31;;;12.40;36.52
56713;BME280;42589;45.536;9.032;2023-02-03T08:13:04;100656.34;;;12.41;37.03
56713;BME280;42589;45.536;9.032;2023-02-03T08:16:06;100663.91;;;12.45;37.10
56713;BME280;42589;45.536;9.032;2023-02-03T08:19:07;100642.88;;;12.80;36.38
56713;BME280;42589;45.536;9.032;2023-02-03T08:22:08;100633.25;;;12.96;35.81
56713;BME280;42589;45.536;9.032;2023-02-03T08:25:09;100648.13;;;13.36;34.65
56713;BME280;42589;45.536;9.032;2023-02-03T08:28:10;100625.63;;;13.39;35.23
56713;BME280;42589;45.536;9.032;2023-02-03T08:31:11;100637.03;;;13.59;34.68
56713;BME280;42589;45.536;9.032;2023-02-03T08:34:11;100620.34;;;13.47;34.53
56713;BME280;42589;45.536;9.032;2023-02-03T08:37:14;100650.00;;;13.72;34.55
56713;BME280;42589;45.536;9.032;2023-02-03T08:40:15;100627.47;;;13.38;35.07
56713;BME280;42589;45.536;9.032;2023-02-03T08:43:17;100597.00;;;13.31;35.42
56713;BME280;42589;45.536;9.032;2023-02-03T08:46:17;100624.19;;;13.98;34.85
56713;BME280;42589;45.536;9.032;2023-02-03T08:49:19;100621.28;;;13.91;34.61
56713;BME280;42589;45.536;9.032;2023-02-03T08:52:20;100655.00;;;14.28;34.75
56713;BME280;42589;45.536;9.032;2023-02-03T08:55:21;100652.81;;;13.24;37.17
56713;BME280;42589;45.536;9.032;2023-02-03T08:58:24;100634.72;;;13.82;36.59
56713;BME280;42589;45.536;9.032;2023-02-03T09:01:24;100644.53;;;14.35;35.81
56713;BME280;42589;45.536;9.032;2023-02-03T09:04:25;100636.47;;;13.91;36.36
56713;BME280;42589;45.536;9.032;2023-02-03T09:07:26;100642.31;;;13.86;35.90
56713;BME280;42589;45.536;9.032;2023-02-03T09:10:28;100659.94;;;14.59;34.72
56713;BME280;42589;45.536;9.032;2023-02-03T09:13:29;100667.72;;;14.52;34.64
56713;BME280;42589;45.536;9.032;2023-02-03T09:16:30;100660.47;;;14.62;34.19
56713;BME280;42589;45.536;9.032;2023-02-03T09:19:31;100665.13;;;14.43;34.55
56713;BME280;42589;45.536;9.032;2023-02-03T09:22:37;100666.41;;;15.08;33.86
56713;BME280;42589;45.536;9.032;2023-02-03T09:25:39;100672.09;;;14.79;33.23
56713;BME280;42589;45.536;9.032;2023-02-03T09:28:41;100686.28;;;14.10;34.96
56713;BME280;42589;45.536;9.032;2023-02-03T09:31:42;100698.59;;;14.65;34.28
56713;BME280;42589;45.536;9.032;2023-02-03T09:34:44;100685.59;;;13.90;35.44
56713;BME280;42589;45.536;9.032;2023-02-03T09:37:45;100687.19;;;13.83;36.36
56713;BME280;42589;45.536;9.032;2023-02-03T09:41:30;100689.31;;;14.51;35.12
56713;BME280;42589;45.536;9.032;2023-02-03T09:47:39;100686.97;;;15.50;33.35
56713;BME280;42589;45.536;9.032;2023-02-03T09:50:43;100679.41;;;15.96;33.02
56713;BME280;42589;45.536;9.032;2023-02-03T09:53:47;100635.00;;;15.94;32.45
56713;BME280;42589;45.536;9.032;2023-02-03T09:56:51;100687.47;;;16.21;32.31
56713;BME280;42589;45.536;9.032;2023-02-03T09:59:57;100684.44;;;15.99;32.79
56713;BME280;42589;45.536;9.032;2023-02-03T10:03:06;100687.78;;;16.26;32.12
56713;BME280;42589;45.536;9.032;2023-02-03T10:06:35;100692.44;;;16.65;32.04
56713;BME280;42589;45.536;9.032;2023-02-03T10:10:05;100706.41;;;16.52;32.17
56713;BME280;42589;45.536;9.032;2023-02-03T10:19:33;100692.50;;;16.32;33.57
56713;BME280;42589;45.536;9.032;2023-02-03T10:22:48;100684.59;;;16.39;33.41
56713;BME280;42589;45.536;9.032;2023-02-03T10:25:53;100693.31;;;16.33;32.33
56713;BME280;42589;45.536;9.032;2023-02-03T10:28:56;100684.94;;;16.44;30.84
56713;BME280;42589;45.536;9.032;2023-02-03T10:31:57;100687.94;;;16.65;30.17
56713;BME280;42589;45.536;9.032;2023-02-03T10:34:59;100654.88;;;16.65;29.34
56713;BME280;42589;45.536;9.032;2023-02-03T10:38:02;100662.91;;;16.73;29.42
56713;BME280;42589;45.536;9.032;2023-02-03T10:41:05;100657.06;;;16.78;28.76
56713;BME280;42589;45.536;9.032;2023-02-03T10:44:08;100664.59;;;16.90;29.24
56713;BME280;42589;45.536;9.032;2023-02-03T10:47:33;100668.25;;;16.98;29.03
56713;BME280;42589;45.536;9.032;2023-02-03T10:50:41;100656.09;;;16.62;29.10
56713;BME280;42589;45.536;9.032;2023-02-03T10:53:44;100643.34;;;16.56;29.79
56713;BME280;42589;45.536;9.032;2023-02-03T10:56:48;100661.66;;;17.16;28.54
56713;BME280;42589;45.536;9.032;2023-02-03T11:00:28;100654.78;;;17.14;28.52
56713;BME280;42589;45.536;9.032;2023-02-03T11:03:28;100663.91;;;17.36;28.42
56713;BME280;42589;45.536;9.032;2023-02-03T11:06:29;100657.50;;;17.37;27.95
56713;BME280;42589;45.536;9.032;2023-02-03T11:09:36;100646.94;;;17.67;28.02
56713;BME280;42589;45.536;9.032;2023-02-03T11:12:38;100652.72;;;17.55;28.91
56713;BME280;42589;45.536;9.032;2023-02-03T11:16:06;100642.13;;;17.85;28.31
56713;BME280;42589;45.536;9.032;2023-02-03T11:19:19;100631.31;;;16.28;29.04
56713;BME280;42589;45.536;9.032;2023-02-03T11:22:29;100621.41;;;17.62;27.88
56713;BME280;42589;45.536;9.032;2023-02-03T11:25:31;100628.81;;;16.98;27.77
56713;BME280;42589;45.536;9.032;2023-02-03T11:28:32;100616.31;;;17.99;26.08
56713;BME280;42589;45.536;9.032;2023-02-03T11:31:35;100600.63;;;16.94;26.79
56713;BME280;42589;45.536;9.032;2023-02-03T11:34:37;100601.38;;;16.55;27.63
56713;BME280;42589;45.536;9.032;2023-02-03T11:37:42;100597.34;;;17.15;27.56
56713;BME280;42589;45.536;9.032;2023-02-03T11:40:44;100573.16;;;18.30;26.75
56713;BME280;42589;45.536;9.032;2023-02-03T11:43:45;100575.53;;;18.77;26.36
56713;BME280;42589;45.536;9.032;2023-02-03T11:46:48;100572.03;;;18.54;26.88
56713;BME280;42589;45.536;9.032;2023-02-03T12:26:20;100477.72;;;19.63;26.07
56713;BME280;42589;45.536;9.032;2023-02-03T12:29:30;100477.75;;;19.91;25.83
56713;BME280;42589;45.536;9.032;2023-02-03T12:32:41;100471.59;;;19.97;25.72
56713;BME280;42589;45.536;9.032;2023-02-03T12:36:02;100474.16;;;19.56;25.60
56713;BME280;42589;45.536;9.032;2023-02-03T12:42:23;100477.06;;;18.01;27.13
56713;BME280;42589;45.536;9.032;2023-02-03T12:45:31;100456.59;;;19.38;26.09
56713;BME280;42589;45.536;9.032;2023-02-03T12:48:52;100456.88;;;20.00;24.89
56713;BME280;42589;45.536;9.032;2023-02-03T12:52:09;100434.03;;;19.67;24.89
56713;BME280;42589;45.536;9.032;2023-02-03T12:55:38;100441.00;;;20.18;25.27
56713;BME280;42589;45.536;9.032;2023-02-03T13:01:59;100420.84;;;19.79;26.10
56713;BME280;42589;45.536;9.032;2023-02-03T13:05:20;100414.94;;;20.45;25.89
56713;BME280;42589;45.536;9.032;2023-02-03T13:08:36;100429.41;;;20.79;25.47
56713;BME280;42589;45.536;9.032;2023-02-03T13:12:10;100424.56;;;21.36;25.20
56713;BME280;42589;45.536;9.032;2023-02-03T13:15:26;100399.94;;;20.77;25.52
56713;BME280;42589;45.536;9.032;2023-02-03T13:18:32;100418.09;;;18.65;27.95
56713;BME280;42589;45.536;9.032;2023-02-03T13:21:34;100403.28;;;19.40;27.32
56713;BME280;42589;45.536;9.032;2023-02-03T13:24:36;100424.44;;;19.15;27.46
56713;BME280;42589;45.536;9.032;2023-02-03T13:37:55;100383.44;;;18.98;28.43
56713;BME280;42589;45.536;9.032;2023-02-03T13:41:18;100373.72;;;20.78;26.71
56713;BME280;42589;45.536;9.032;2023-02-03T13:44:25;100355.13;;;20.48;27.04
56713;BME280;42589;45.536;9.032;2023-02-03T13:47:29;100367.13;;;20.32;27.39
56713;BME280;42589;45.536;9.032;2023-02-03T13:50:31;100392.69;;;21.04;26.80
56713;BME280;42589;45.536;9.032;2023-02-03T13:53:35;100362.94;;;21.11;26.59
56713;BME280;42589;45.536;9.032;2023-02-03T13:56:37;100383.97;;;21.16;27.17
56713;BME280;42589;45.536;9.032;2023-02-03T13:59:41;100368.13;;;20.79;27.85
56713;BME280;42589;45.536;9.032;2023-02-03T14:02:51;100360.72;;;20.33;28.05
56713;BME280;42589;45.536;9.032;2023-02-03T14:05:57;100358.50;;;20.02;29.28
56713;BME280;42589;45.536;9.032;2023-02-03T14:08:58;100346.59;;;19.90;30.03
56713;BME280;42589;45.536;9.032;2023-02-03T14:12:20;100353.81;;;21.52;28.48
56713;BME280;42589;45.536;9.032;2023-02-03T14:15:31;100345.84;;;19.40;30.40
56713;BME280;42589;45.536;9.032;2023-02-03T14:18:33;100348.38;;;21.05;28.45
56713;BME280;42589;45.536;9.032;2023-02-03T14:21:59;100347.53;;;21.71;28.11
56713;BME280;42589;45.536;9.032;2023-02-03T14:25:05;100339.03;;;20.88;28.59
56713;BME280;42589;45.536;9.032;2023-02-03T14:28:10;100361.06;;;21.65;28.07
56713;BME280;42589;45.536;9.032;2023-02-03T14:31:18;100341.50;;;20.76;28.35
56713;BME280;42589;45.536;9.032;2023-02-03T14:34:34;100350.03;;;20.86;28.81
56713;BME280;42589;45.536;9.032;2023-02-03T14:37:39;100328.13;;;21.81;27.90
56713;BME280;42589;45.536;9.032;2023-02-03T14:41:03;100335.13;;;20.29;28.84
56713;BME280;42589;45.536;9.032;2023-02-03T14:44:25;100324.31;;;19.46;29.74
56713;BME280;42589;45.536;9.032;2023-02-03T14:57:54;100345.91;;;20.91;28.95
56713;BME280;42589;45.536;9.032;2023-02-03T15:00:56;100325.69;;;20.67;29.16
56713;BME280;42589;45.536;9.032;2023-02-03T15:07:36;100334.31;;;22.01;27.83
56713;BME280;42589;45.536;9.032;2023-02-03T15:13:39;100329.25;;;21.40;28.34
56713;BME280;42589;45.536;9.032;2023-02-03T15:16:42;100318.16;;;22.33;27.64
56713;BME280;42589;45.536;9.032;2023-02-03T15:19:45;100318.88;;;20.77;29.19
56713;BME280;42589;45.536;9.032;2023-02-03T15:22:46;100302.25;;;20.06;30.28
56713;BME280;42589;45.536;9.032;2023-02-03T15:25:59;100308.28;;;21.36;29.20
56713;BME280;42589;45.536;9.032;2023-02-03T15:29:02;100319.28;;;22.12;28.20
56713;BME280;42589;45.536;9.032;2023-02-03T15:32:12;100302.94;;;21.87;28.41
56713;BME280;42589;45.536;9.032;2023-02-03T15:35:17;100313.06;;;20.94;29.22
56713;BME280;42589;45.536;9.032;2023-02-03T15:38:26;100308.97;;;21.89;27.98
56713;BME280;42589;45.536;9.032;2023-02-03T15:41:28;100325.50;;;21.21;28.84
56713;BME280;42589;45.536;9.032;2023-02-03T15:44:32;100310.78;;;20.09;30.07
56713;BME280;42589;45.536;9.032;2023-02-03T15:47:40;100298.50;;;20.68;29.48
56713;BME280;42589;45.536;9.032;2023-02-03T15:50:41;100330.72;;;21.09;28.93
56713;BME280;42589;45.536;9.032;2023-02-03T15:53:51;100318.84;;;21.24;28.47
56713;BME280;42589;45.536;9.032;2023-02-03T15:59:59;100311.59;;;20.91;28.71
56713;BME280;42589;45.536;9.032;2023-02-03T16:03:02;100301.00;;;21.36;28.04
56713;BME280;42589;45.536;9.032;2023-02-03T16:06:29;100311.38;;;21.39;28.39
56713;BME280;42589;45.536;9.032;2023-02-03T16:09:33;100309.44;;;21.73;28.00
56713;BME280;42589;45.536;9.032;2023-02-03T16:12:34;100303.47;;;21.11;28.49
56713;BME280;42589;45.536;9.032;2023-02-03T16:15:35;100286.00;;;20.60;29.19
56713;BME280;42589;45.536;9.032;2023-02-03T16:18:36;100304.72;;;20.95;29.12
56713;BME280;42589;45.536;9.032;2023-02-03T16:24:50;100293.41;;;20.38;29.54
56713;BME280;42589;45.536;9.032;2023-02-03T16:31:18;100270.66;;;19.93;30.04
56713;BME280;42589;45.536;9.032;2023-02-03T16:34:38;100278.03;;;20.26;29.63
56713;BME280;42589;45.536;9.032;2023-02-03T16:38:13;100305.66;;;20.28;29.76
56713;BME280;42589;45.536;9.032;2023-02-03T16:41:32;100310.00;;;20.22;29.76
56713;BME280;42589;45.536;9.032;2023-02-03T16:44:53;100307.22;;;20.02;29.90
56713;BME280;42589;45.536;9.032;2023-02-03T16:48:12;100306.38;;;19.25;30.61
56713;BME280;42589;45.536;9.032;2023-02-03T16:51:40;100307.50;;;19.73;30.16
56713;BME280;42589;45.536;9.032;2023-02-03T16:54:41;100306.31;;;18.33;31.83
56713;BME280;42589;45.536;9.032;2023-02-03T16:57:42;100289.56;;;18.52;31.43
56713;BME280;42589;45.536;9.032;2023-02-03T17:00:44;100291.53;;;19.43;30.22
56713;BME280;42589;45.536;9.032;2023-02-03T17:03:45;100312.16;;;19.22;30.38
56713;BME280;42589;45.536;9.032;2023-02-03T17:06:46;100287.94;;;19.01;30.41
56713;BME280;42589;45.536;9.032;2023-02-03T17:09:53;100291.00;;;19.54;30.07
56713;BME280;42589;45.536;9.032;2023-02-03T17:12:54;100308.88;;;19.62;29.98
56713;BME280;42589;45.536;9.032;2023-02-03T17:15:55;100305.63;;;19.38;30.09
56713;BME280;42589;45.536;9.032;2023-02-03T17:18:57;100318.28;;;19.10;30.50
56713;BME280;42589;45.536;9.032;2023-02-03T17:22:01;100329.66;;;20.03;29.52
56713;BME280;42589;45.536;9.032;2023-02-03T17:25:02;100321.50;;;18.77;31.17
56713;BME280;42589;45.536;9.032;2023-02-03T17:28:07;100284.41;;;18.15;31.66
56713;BME280;42589;45.536;9.032;2023-02-03T17:31:12;100292.03;;;18.32;31.89
56713;BME280;42589;45.536;9.032;2023-02-03T17:34:13;100273.16;;;17.45;33.41
56713;BME280;42589;45.536;9.032;2023-02-03T17:37:15;100301.31;;;17.49;33.20
56713;BME280;42589;45.536;9.032;2023-02-03T17:40:16;100304.25;;;18.14;32.71
56713;BME280;42589;45.536;9.032;2023-02-03T17:43:17;100299.50;;;18.30;32.01
56713;BME280;42589;45.536;9.032;2023-02-03T17:46:23;100311.88;;;18.10;32.44
56713;BME280;42589;45.536;9.032;2023-02-03T17:49:23;100296.63;;;18.53;31.77
56713;BME280;42589;45.536;9.032;2023-02-03T17:52:24;100266.63;;;18.78;31.25
56713;BME280;42589;45.536;9.032;2023-02-03T17:55:25;100262.97;;;18.43;31.78
56713;BME280;42589;45.536;9.032;2023-02-03T17:58:26;100288.59;;;18.39;31.87
56713;BME280;42589;45.536;9.032;2023-02-03T18:01:27;100294.63;;;18.41;31.73
56713;BME280;42589;45.536;9.032;2023-02-03T18:04:28;100312.44;;;18.42;31.69
56713;BME280;42589;45.536;9.032;2023-02-03T18:07:29;100313.88;;;18.23;32.25